Time;durP1;ratioP1;P1;durP2;ratioP2;P2;SDS_P1;SDS_P2;PMS_P1;PMS_P2;Temp;Humidity;BMP_temperature;BMP_pressure;BME280_temperature;BME280_humidity;BME280_pressure;Samples;Min_cycle;Max_cycle;Signal;HPM_P1;HPM_P2
2021/01/01 00:01:09;;;;;;;352.23;240.40;;;;;;;;;;4960270;29;20036;-83
2021/01/01 00:03:35;;;;;;;660.10;530.97;;;;;;;;;;4959210;29;20075;-85
2021/01/01 00:06:01;;;;;;;308.37;213.97;;;;;;;;;;4961525;29;20020;-84
2021/01/01 00:08:29;;;;;;;563.93;447.30;;;;;;;;;;4959855;29;20039;-83
2021/01/01 00:10:55;;;;;;;641.93;527.43;;;;;;;;;;4960220;29;20044;-85
2021/01/01 00:13:21;;;;;;;611.50;500.77;;;;;;;;;;4958384;29;20046;-84
2021/01/01 00:15:47;;;;;;;565.20;463.30;;;;;;;;;;4958434;29;20032;-84
2021/01/01 00:18:13;;;;;;;660.37;521.90;;;;;;;;;;4958256;29;20055;-85
2021/01/01 00:20:42;;;;;;;526.57;424.53;;;;;;;;;;4959005;29;20068;-85
2021/01/01 00:23:09;;;;;;;493.87;386.47;;;;;;;;;;4959365;29;20043;-85
2021/01/01 00:25:35;;;;;;;367.43;262.70;;;;;;;;;;4959552;29;20042;-84
2021/01/01 00:28:01;;;;;;;195.20;131.93;;;;;;;;;;4958757;29;20036;-85
2021/01/01 00:30:28;;;;;;;208.50;135.03;;;;;;;;;;4958673;29;20034;-84
2021/01/01 00:32:54;;;;;;;217.10;141.63;;;;;;;;;;4959345;29;20094;-84
2021/01/01 00:35:20;;;;;;;228.97;151.73;;;;;;;;;;4959674;29;20032;-85
2021/01/01 00:37:46;;;;;;;202.87;134.87;;;;;;;;;;4961206;29;20035;-85
2021/01/01 00:40:12;;;;;;;255.80;162.87;;;;;;;;;;4959970;29;20043;-84
2021/01/01 00:42:39;;;;;;;271.37;175.63;;;;;;;;;;4969974;29;20051;-85
2021/01/01 00:45:06;;;;;;;196.43;126.87;;;;;;;;;;4980021;29;20075;-84
2021/01/01 00:47:32;;;;;;;264.43;171.13;;;;;;;;;;4980225;29;20039;-84
2021/01/01 00:49:59;;;;;;;245.67;167.07;;;;;;;;;;4980594;28;20035;-84
2021/01/01 00:52:25;;;;;;;261.20;167.33;;;;;;;;;;4980170;29;20039;-85
2021/01/01 00:54:51;;;;;;;240.80;157.63;;;;;;;;;;4978213;29;20062;-85
2021/01/01 00:57:17;;;;;;;227.17;148.07;;;;;;;;;;4978931;29;20035;-86
2021/01/01 00:59:43;;;;;;;224.10;146.47;;;;;;;;;;4979016;29;20047;-85
2021/01/01 01:02:09;;;;;;;232.83;146.67;;;;;;;;;;4978093;29;20035;-84
2021/01/01 01:04:36;;;;;;;236.20;157.73;;;;;;;;;;4978223;29;20031;-83
2021/01/01 01:07:02;;;;;;;239.13;154.77;;;;;;;;;;4977334;29;20031;-85
2021/01/01 01:09:29;;;;;;;233.23;152.27;;;;;;;;;;4977901;29;20043;-84
2021/01/01 01:11:55;;;;;;;273.50;178.60;;;;;;;;;;4976595;29;20028;-84
2021/01/01 01:14:21;;;;;;;263.07;174.67;;;;;;;;;;4977060;29;20043;-84
2021/01/01 01:16:47;;;;;;;273.07;182.83;;;;;;;;;;4977338;29;20043;-84
2021/01/01 01:19:14;;;;;;;274.40;186.03;;;;;;;;;;4976015;29;20051;-84
2021/01/01 01:21:40;;;;;;;272.47;181.60;;;;;;;;;;4976560;28;20039;-84
2021/01/01 01:24:06;;;;;;;281.97;182.13;;;;;;;;;;4977070;29;20059;-84
2021/01/01 01:26:32;;;;;;;269.77;176.20;;;;;;;;;;4977479;29;20066;-83
2021/01/01 01:28:59;;;;;;;265.93;171.40;;;;;;;;;;4976900;29;20111;-84
2021/01/01 01:31:25;;;;;;;263.67;170.63;;;;;;;;;;4977736;29;20042;-84
2021/01/01 01:33:53;;;;;;;255.00;165.47;;;;;;;;;;4979401;29;20020;-84
2021/01/01 01:36:20;;;;;;;263.83;167.00;;;;;;;;;;4979884;29;20039;-83
2021/01/01 01:38:49;;;;;;;257.47;168.23;;;;;;;;;;4979987;29;20040;-85
2021/01/01 01:44:41;;;;;;;262.43;170.07;;;;;;;;;;4883018;29;20129;-84
2021/01/01 01:47:14;;;;;;;236.77;159.33;;;;;;;;;;4976491;29;20041;-84
2021/01/01 01:49:40;;;;;;;246.87;163.63;;;;;;;;;;4978340;28;20074;-84
2021/01/01 01:52:06;;;;;;;261.00;165.73;;;;;;;;;;4979143;29;20035;-84
2021/01/01 01:54:33;;;;;;;253.33;164.43;;;;;;;;;;4978996;29;20054;-85
2021/01/01 01:56:59;;;;;;;272.80;166.90;;;;;;;;;;4962144;29;20036;-84
2021/01/01 01:59:25;;;;;;;266.23;171.67;;;;;;;;;;4974848;29;20066;-84
2021/01/01 02:01:51;;;;;;;266.07;171.30;;;;;;;;;;4972954;29;20082;-85
2021/01/01 02:04:17;;;;;;;255.63;167.43;;;;;;;;;;4973803;29;20039;-84
2021/01/01 02:06:46;;;;;;;270.27;166.50;;;;;;;;;;4973614;29;20059;-85
2021/01/01 02:09:12;;;;;;;247.83;164.47;;;;;;;;;;4973498;29;20500;-85
2021/01/01 02:11:40;;;;;;;264.47;168.40;;;;;;;;;;4973726;29;20039;-85
2021/01/01 02:14:06;;;;;;;262.80;172.07;;;;;;;;;;4974743;29;20047;-85
2021/01/01 02:16:34;;;;;;;275.50;167.17;;;;;;;;;;4974779;29;20059;-84
2021/01/01 02:19:00;;;;;;;275.93;174.93;;;;;;;;;;4976554;29;20039;-85
2021/01/01 02:21:26;;;;;;;274.63;175.97;;;;;;;;;;4976865;29;20047;-85
2021/01/01 02:23:52;;;;;;;270.07;174.90;;;;;;;;;;4977687;29;20091;-85
2021/01/01 02:26:19;;;;;;;284.77;177.47;;;;;;;;;;4977419;29;20028;-84
2021/01/01 02:28:45;;;;;;;279.00;179.00;;;;;;;;;;4976488;29;20058;-85
2021/01/01 02:31:11;;;;;;;265.97;168.07;;;;;;;;;;4976460;29;20190;-85
2021/01/01 02:33:37;;;;;;;275.83;171.13;;;;;;;;;;4960508;29;20054;-85
2021/01/01 02:36:04;;;;;;;287.53;173.63;;;;;;;;;;4977453;29;20035;-84
2021/01/01 02:38:30;;;;;;;269.60;168.80;;;;;;;;;;4978125;29;20050;-85
2021/01/01 02:40:56;;;;;;;294.80;180.53;;;;;;;;;;4975783;29;20039;-85
2021/01/01 02:43:22;;;;;;;274.67;172.77;;;;;;;;;;4975921;29;20051;-85
2021/01/01 02:45:48;;;;;;;281.03;177.37;;;;;;;;;;4976941;29;20019;-86
2021/01/01 02:48:21;;;;;;;298.67;183.80;;;;;;;;;;4977042;29;20055;-86
2021/01/01 02:50:50;;;;;;;295.57;179.60;;;;;;;;;;4977329;29;20031;-85
2021/01/01 02:53:16;;;;;;;280.87;180.40;;;;;;;;;;4976513;29;20059;-85
2021/01/01 02:55:42;;;;;;;296.57;179.27;;;;;;;;;;4978536;29;20059;-85
2021/01/01 02:58:09;;;;;;;296.67;183.30;;;;;;;;;;4977777;29;20036;-85
2021/01/01 03:00:36;;;;;;;285.13;178.80;;;;;;;;;;4977602;29;20043;-84
2021/01/01 03:03:02;;;;;;;285.60;175.20;;;;;;;;;;4977168;29;20030;-85
2021/01/01 03:05:28;;;;;;;297.50;182.77;;;;;;;;;;4976034;29;20039;-85
2021/01/01 03:07:54;;;;;;;289.73;181.80;;;;;;;;;;4975901;29;20055;-85
2021/01/01 03:10:20;;;;;;;336.60;211.67;;;;;;;;;;4976624;29;20035;-85
2021/01/01 03:12:47;;;;;;;344.47;216.00;;;;;;;;;;4977548;29;20030;-85
2021/01/01 03:15:16;;;;;;;341.90;209.90;;;;;;;;;;4976795;29;20083;-85
2021/01/01 03:17:42;;;;;;;324.97;203.77;;;;;;;;;;4977680;29;20015;-85
2021/01/01 03:20:09;;;;;;;333.80;209.17;;;;;;;;;;4977057;29;20036;-85
2021/01/01 03:22:36;;;;;;;337.30;205.83;;;;;;;;;;4977296;29;20094;-85
2021/01/01 03:25:03;;;;;;;329.50;202.37;;;;;;;;;;4976871;29;20118;-85
2021/01/01 03:27:29;;;;;;;349.13;215.07;;;;;;;;;;4975177;29;20040;-84
2021/01/01 03:29:56;;;;;;;330.17;202.97;;;;;;;;;;4974841;29;20035;-85
2021/01/01 03:32:22;;;;;;;344.67;212.17;;;;;;;;;;4975427;29;20031;-85
2021/01/01 03:34:48;;;;;;;349.00;220.50;;;;;;;;;;4975246;29;20125;-85
2021/01/01 03:37:14;;;;;;;358.70;219.13;;;;;;;;;;4974783;29;20043;-85
2021/01/01 03:39:40;;;;;;;376.73;229.90;;;;;;;;;;4975594;29;20112;-85
2021/01/01 03:42:09;;;;;;;361.97;227.73;;;;;;;;;;4976006;29;20059;-85
2021/01/01 03:44:36;;;;;;;397.97;249.57;;;;;;;;;;4976391;29;20027;-85
2021/01/01 03:47:06;;;;;;;400.03;255.10;;;;;;;;;;4979940;28;20062;-85
2021/01/01 03:49:32;;;;;;;392.97;250.27;;;;;;;;;;4980246;29;20048;-85
2021/01/01 03:51:58;;;;;;;408.93;259.97;;;;;;;;;;4981391;29;20016;-85
2021/01/01 03:54:59;;;;;;;407.30;256.73;;;;;;;;;;4979803;29;20070;-85
2021/01/01 03:57:25;;;;;;;404.13;257.57;;;;;;;;;;4981069;29;20122;-85
2021/01/01 03:59:51;;;;;;;433.73;272.90;;;;;;;;;;4979967;29;20035;-85
2021/01/01 04:02:17;;;;;;;415.50;266.70;;;;;;;;;;4978853;29;20035;-85
2021/01/01 04:04:43;;;;;;;424.37;270.57;;;;;;;;;;4979205;29;20063;-85
2021/01/01 04:07:10;;;;;;;438.30;282.67;;;;;;;;;;4979697;29;20046;-85
2021/01/01 04:09:36;;;;;;;428.23;274.37;;;;;;;;;;4964577;29;20051;-85
2021/01/01 04:12:02;;;;;;;447.23;293.23;;;;;;;;;;4979894;29;20035;-85
2021/01/01 04:14:28;;;;;;;433.47;284.03;;;;;;;;;;4979064;29;20037;-85
2021/01/01 04:16:54;;;;;;;415.90;272.57;;;;;;;;;;4978927;29;20083;-85
2021/01/01 04:19:21;;;;;;;427.63;279.03;;;;;;;;;;4979503;29;20082;-85
2021/01/01 04:21:48;;;;;;;438.33;286.93;;;;;;;;;;4979742;29;20058;-85
2021/01/01 04:24:14;;;;;;;438.97;280.03;;;;;;;;;;4978743;29;20043;-85
2021/01/01 04:26:40;;;;;;;432.37;277.00;;;;;;;;;;4980047;29;20011;-85
2021/01/01 04:29:07;;;;;;;430.63;278.63;;;;;;;;;;4979545;29;20058;-85
2021/01/01 04:31:34;;;;;;;438.43;285.13;;;;;;;;;;4979303;29;20035;-85
2021/01/01 04:34:00;;;;;;;429.70;278.57;;;;;;;;;;4978992;29;20102;-85
2021/01/01 04:36:26;;;;;;;416.53;273.63;;;;;;;;;;4979294;29;20030;-85
2021/01/01 04:38:53;;;;;;;425.60;278.20;;;;;;;;;;4979634;29;20091;-85
2021/01/01 04:41:20;;;;;;;442.97;291.87;;;;;;;;;;4979158;29;20031;-84
2021/01/01 04:43:48;;;;;;;420.20;272.23;;;;;;;;;;4978252;29;20111;-85
2021/01/01 04:46:14;;;;;;;416.20;270.83;;;;;;;;;;4979066;29;20031;-84
2021/01/01 04:48:43;;;;;;;415.53;263.70;;;;;;;;;;4978891;29;20398;-85
2021/01/01 04:51:09;;;;;;;407.40;261.03;;;;;;;;;;4979920;29;20035;-85
2021/01/01 04:53:38;;;;;;;405.27;255.57;;;;;;;;;;4979083;29;20066;-84
2021/01/01 04:56:05;;;;;;;398.37;253.37;;;;;;;;;;4979183;29;20035;-85
2021/01/01 04:58:34;;;;;;;409.57;260.27;;;;;;;;;;4978127;28;20031;-85
2021/01/01 05:01:01;;;;;;;404.67;254.33;;;;;;;;;;4980583;29;20031;-85
2021/01/01 05:03:27;;;;;;;413.30;261.30;;;;;;;;;;4979318;29;20035;-85
2021/01/01 05:05:54;;;;;;;405.70;256.77;;;;;;;;;;4979862;29;20027;-85
2021/01/01 05:08:21;;;;;;;392.47;255.47;;;;;;;;;;4979687;28;20051;-85
2021/01/01 05:10:47;;;;;;;380.50;247.10;;;;;;;;;;4978894;29;20035;-85
2021/01/01 05:13:14;;;;;;;392.70;248.93;;;;;;;;;;4980058;29;20035;-85
2021/01/01 05:15:41;;;;;;;381.70;244.23;;;;;;;;;;4979122;29;20063;-85
2021/01/01 05:18:24;;;;;;;354.57;216.73;;;;;;;;;;4979372;29;20022;-86
2021/01/01 05:20:50;;;;;;;336.40;205.13;;;;;;;;;;4978500;29;20019;-86
2021/01/01 05:23:25;;;;;;;356.27;218.93;;;;;;;;;;4979328;29;20015;-86
2021/01/01 05:29:06;;;;;;;312.15;185.95;;;;;;;;;;4974823;29;20090;-85
2021/01/01 05:31:40;;;;;;;305.90;188.20;;;;;;;;;;4978277;29;20015;-86
2021/01/01 05:34:10;;;;;;;320.10;191.60;;;;;;;;;;4978602;29;20019;-85
2021/01/01 05:36:39;;;;;;;289.13;178.03;;;;;;;;;;4979112;29;20012;-85
2021/01/01 05:39:14;;;;;;;284.20;167.90;;;;;;;;;;4978176;29;20043;-85
2021/01/01 05:41:47;;;;;;;277.23;167.53;;;;;;;;;;4976796;29;20071;-86
2021/01/01 05:44:17;;;;;;;278.30;162.10;;;;;;;;;;4979069;29;20061;-85
2021/01/01 05:47:00;;;;;;;283.50;168.73;;;;;;;;;;4980079;29;20055;-86
2021/01/01 05:49:46;;;;;;;272.27;159.83;;;;;;;;;;4979209;29;20027;-85
2021/01/01 05:52:25;;;;;;;252.33;148.33;;;;;;;;;;4979245;29;20047;-86
2021/01/01 05:55:02;;;;;;;246.00;147.30;;;;;;;;;;4980139;29;20023;-86
2021/01/01 05:57:35;;;;;;;240.90;145.57;;;;;;;;;;4979709;29;20066;-85
2021/01/01 06:00:04;;;;;;;236.73;140.93;;;;;;;;;;4979602;29;20028;-86
2021/01/01 06:02:32;;;;;;;250.40;146.27;;;;;;;;;;4979954;29;20041;-86
2021/01/01 06:04:59;;;;;;;255.43;154.77;;;;;;;;;;4977940;29;20050;-86
2021/01/01 06:07:26;;;;;;;227.73;136.83;;;;;;;;;;4977644;29;20051;-86
2021/01/01 06:09:54;;;;;;;212.17;127.53;;;;;;;;;;4978484;28;20051;-85
2021/01/01 06:12:26;;;;;;;221.17;139.57;;;;;;;;;;4977818;29;20019;-86
2021/01/01 06:14:59;;;;;;;198.47;118.60;;;;;;;;;;4978296;29;20054;-86
2021/01/01 06:17:33;;;;;;;188.77;113.50;;;;;;;;;;4977857;29;20124;-85
2021/01/01 06:19:59;;;;;;;180.93;100.03;;;;;;;;;;4977927;29;20040;-85
2021/01/01 06:22:26;;;;;;;201.57;121.97;;;;;;;;;;4978032;29;20043;-85
2021/01/01 06:24:53;;;;;;;183.70;112.33;;;;;;;;;;4977928;29;20019;-85
2021/01/01 06:27:20;;;;;;;158.47;96.73;;;;;;;;;;4977268;29;20058;-85
2021/01/01 06:29:48;;;;;;;131.30;79.33;;;;;;;;;;4978198;29;20102;-86
2021/01/01 06:32:18;;;;;;;115.00;68.00;;;;;;;;;;4978210;29;20046;-85
2021/01/01 06:34:44;;;;;;;97.53;55.30;;;;;;;;;;4977705;29;20067;-85
2021/01/01 06:37:36;;;;;;;97.37;54.53;;;;;;;;;;4977160;29;20367;-85
2021/01/01 06:40:02;;;;;;;125.57;76.43;;;;;;;;;;4904300;29;20037;-85
2021/01/01 06:42:47;;;;;;;109.20;63.67;;;;;;;;;;4904035;29;20124;-85
2021/01/01 06:45:35;;;;;;;130.07;71.20;;;;;;;;;;4918812;29;20036;-85
2021/01/01 06:48:02;;;;;;;119.00;67.80;;;;;;;;;;4902296;29;20081;-85
2021/01/01 06:50:29;;;;;;;130.87;81.77;;;;;;;;;;4903785;29;20614;-85
2021/01/01 06:53:02;;;;;;;127.73;74.90;;;;;;;;;;4904439;29;20036;-85
2021/01/01 06:55:37;;;;;;;115.67;70.77;;;;;;;;;;4904315;29;20100;-85
2021/01/01 06:58:03;;;;;;;118.83;69.90;;;;;;;;;;4920352;29;20065;-85
2021/01/01 07:00:48;;;;;;;107.80;66.70;;;;;;;;;;4921235;29;20024;-85
2021/01/01 07:03:26;;;;;;;103.00;62.47;;;;;;;;;;4904836;29;20024;-85
2021/01/01 07:05:52;;;;;;;94.37;58.00;;;;;;;;;;4904947;29;20411;-86
2021/01/01 07:08:37;;;;;;;108.30;62.67;;;;;;;;;;4920726;29;20036;-84
2021/01/01 07:11:03;;;;;;;104.63;59.83;;;;;;;;;;4939210;29;20102;-86
2021/01/01 07:13:59;;;;;;;94.07;57.57;;;;;;;;;;4979317;28;20044;-86
2021/01/01 07:16:28;;;;;;;79.30;48.90;;;;;;;;;;4905586;29;20028;-85
2021/01/01 07:18:54;;;;;;;78.03;48.97;;;;;;;;;;4921771;29;20048;-85
2021/01/01 07:21:30;;;;;;;74.03;47.27;;;;;;;;;;4907498;29;20031;-85
2021/01/01 07:23:56;;;;;;;73.47;42.50;;;;;;;;;;4909454;29;20140;-85
2021/01/01 07:26:27;;;;;;;68.70;40.53;;;;;;;;;;4909252;29;20037;-86
2021/01/01 07:28:57;;;;;;;61.53;37.33;;;;;;;;;;4893931;29;20066;-85
2021/01/01 07:31:23;;;;;;;62.97;37.07;;;;;;;;;;4909431;29;20021;-85
2021/01/01 07:33:49;;;;;;;64.67;38.77;;;;;;;;;;4893974;29;20037;-85
2021/01/01 07:36:16;;;;;;;63.47;37.80;;;;;;;;;;4908907;29;20084;-85
2021/01/01 07:38:43;;;;;;;62.17;35.87;;;;;;;;;;4909192;29;20052;-85
2021/01/01 07:41:10;;;;;;;57.77;33.23;;;;;;;;;;4909144;29;20032;-85
2021/01/01 07:43:38;;;;;;;56.67;34.93;;;;;;;;;;4908404;29;20060;-84
2021/01/01 07:46:05;;;;;;;59.67;36.37;;;;;;;;;;4912073;29;20041;-85
2021/01/01 07:48:31;;;;;;;56.83;35.13;;;;;;;;;;4981679;29;20050;-85
2021/01/01 07:50:58;;;;;;;49.87;31.97;;;;;;;;;;4981770;28;20047;-85
2021/01/01 07:53:25;;;;;;;51.60;30.27;;;;;;;;;;4980408;29;20031;-85
2021/01/01 07:55:51;;;;;;;41.83;25.00;;;;;;;;;;4979441;29;20042;-84
2021/01/01 07:58:17;;;;;;;42.50;27.87;;;;;;;;;;4981157;29;20020;-85
2021/01/01 08:00:49;;;;;;;41.67;23.90;;;;;;;;;;4979369;29;20031;-84
2021/01/01 08:03:16;;;;;;;49.20;27.47;;;;;;;;;;4979123;29;20023;-85
2021/01/01 08:05:45;;;;;;;41.50;24.70;;;;;;;;;;4979655;29;20035;-84
2021/01/01 08:08:12;;;;;;;40.00;22.20;;;;;;;;;;4978561;29;20035;-85
2021/01/01 08:10:38;;;;;;;35.17;21.97;;;;;;;;;;4978100;29;20099;-85
2021/01/01 08:13:21;;;;;;;43.57;23.13;;;;;;;;;;4979248;29;20044;-85
2021/01/01 08:15:48;;;;;;;41.87;23.17;;;;;;;;;;4978189;29;20066;-85
2021/01/01 08:18:21;;;;;;;41.23;23.37;;;;;;;;;;4978229;29;20031;-85
2021/01/01 08:20:49;;;;;;;41.83;24.17;;;;;;;;;;4979210;29;20023;-85
2021/01/01 08:23:18;;;;;;;43.63;23.33;;;;;;;;;;4979434;29;20035;-84
2021/01/01 08:25:46;;;;;;;45.63;22.30;;;;;;;;;;4976086;29;20103;-84
2021/01/01 08:28:17;;;;;;;43.63;23.33;;;;;;;;;;4972823;29;20126;-82
2021/01/01 08:30:43;;;;;;;41.17;20.97;;;;;;;;;;4973915;29;20042;-83
2021/01/01 08:33:10;;;;;;;40.33;20.53;;;;;;;;;;4976017;28;20058;-83
2021/01/01 08:35:36;;;;;;;41.57;21.37;;;;;;;;;;4977296;29;20070;-84
2021/01/01 08:38:18;;;;;;;47.00;22.67;;;;;;;;;;4977522;29;20055;-83
2021/01/01 08:40:45;;;;;;;42.03;20.37;;;;;;;;;;4974795;29;20035;-83
2021/01/01 08:43:11;;;;;;;37.63;19.60;;;;;;;;;;4975115;29;20059;-83
2021/01/01 08:45:38;;;;;;;34.97;18.97;;;;;;;;;;4977265;29;20035;-84
2021/01/01 08:48:11;;;;;;;39.73;17.87;;;;;;;;;;4981061;28;20031;-85
2021/01/01 08:50:43;;;;;;;39.47;17.73;;;;;;;;;;4976291;29;20066;-83
2021/01/01 08:53:10;;;;;;;39.13;19.10;;;;;;;;;;4975441;29;20058;-83
2021/01/01 08:55:36;;;;;;;45.10;19.37;;;;;;;;;;4973962;29;20035;-83
2021/01/01 08:58:20;;;;;;;33.77;16.33;;;;;;;;;;4973904;29;20046;-83
2021/01/01 09:00:46;;;;;;;37.37;18.17;;;;;;;;;;4974786;29;20155;-84
2021/01/01 09:03:13;;;;;;;35.77;16.90;;;;;;;;;;4973999;29;20362;-83
2021/01/01 09:05:39;;;;;;;35.57;16.47;;;;;;;;;;4972965;29;20099;-83
2021/01/01 09:08:10;;;;;;;34.70;16.80;;;;;;;;;;4973558;29;20031;-83
2021/01/01 09:10:36;;;;;;;42.87;17.67;;;;;;;;;;4973879;29;20039;-83
2021/01/01 09:13:16;;;;;;;37.87;17.27;;;;;;;;;;4976886;29;20039;-83
2021/01/01 09:15:42;;;;;;;41.70;16.23;;;;;;;;;;4975271;29;20058;-83
2021/01/01 09:18:09;;;;;;;37.30;16.57;;;;;;;;;;4973424;29;20031;-83
2021/01/01 09:20:37;;;;;;;34.50;16.37;;;;;;;;;;4975571;29;20050;-84
2021/01/01 09:23:30;;;;;;;45.93;16.90;;;;;;;;;;4977605;29;20019;-84
2021/01/01 09:25:57;;;;;;;35.40;15.93;;;;;;;;;;4976858;29;20043;-84
2021/01/01 09:28:23;;;;;;;39.77;17.83;;;;;;;;;;4978397;29;20039;-84
2021/01/01 09:30:49;;;;;;;46.40;18.57;;;;;;;;;;4976469;29;20035;-84
2021/01/01 09:33:15;;;;;;;47.47;18.13;;;;;;;;;;4978027;29;20140;-84
2021/01/01 09:35:42;;;;;;;47.83;18.07;;;;;;;;;;4977373;29;20039;-85
2021/01/01 09:38:08;;;;;;;43.13;18.23;;;;;;;;;;4976197;29;20037;-83
2021/01/01 09:40:34;;;;;;;41.87;18.77;;;;;;;;;;4973974;29;20090;-84
2021/01/01 09:43:01;;;;;;;37.60;19.20;;;;;;;;;;4973127;28;20055;-83
2021/01/01 09:45:33;;;;;;;45.43;19.20;;;;;;;;;;4972387;29;20050;-82
2021/01/01 09:47:59;;;;;;;43.77;20.63;;;;;;;;;;4974139;29;20095;-83
2021/01/01 09:50:25;;;;;;;37.30;19.70;;;;;;;;;;4971953;29;20062;-84
2021/01/01 09:52:51;;;;;;;55.40;19.97;;;;;;;;;;4973274;29;20047;-83
2021/01/01 09:55:19;;;;;;;47.47;20.40;;;;;;;;;;4972625;29;20062;-83
2021/01/01 09:57:46;;;;;;;49.83;21.43;;;;;;;;;;4972674;29;20043;-83
2021/01/01 10:00:13;;;;;;;42.17;19.57;;;;;;;;;;4972320;29;20094;-83
2021/01/01 10:02:39;;;;;;;30.07;14.00;;;;;;;;;;4973497;29;20035;-83
2021/01/01 10:05:06;;;;;;;30.70;13.73;;;;;;;;;;4974816;29;20063;-84
2021/01/01 10:07:34;;;;;;;31.07;14.53;;;;;;;;;;4976523;29;20480;-84
2021/01/01 10:10:01;;;;;;;19.57;8.73;;;;;;;;;;4971125;29;20071;-82
2021/01/01 10:12:27;;;;;;;30.83;12.43;;;;;;;;;;4971877;29;20046;-82
2021/01/01 10:14:59;;;;;;;41.50;18.87;;;;;;;;;;4971133;29;20036;-82
2021/01/01 10:17:25;;;;;;;23.90;9.80;;;;;;;;;;4970200;29;20035;-82
2021/01/01 10:20:07;;;;;;;15.00;6.90;;;;;;;;;;4972131;29;20130;-83
2021/01/01 10:22:36;;;;;;;13.33;5.17;;;;;;;;;;4957078;29;20043;-83
2021/01/01 10:25:03;;;;;;;12.07;3.50;;;;;;;;;;4968369;29;20031;-82
2021/01/01 10:27:29;;;;;;;11.07;2.83;;;;;;;;;;4969705;29;20121;-83
2021/01/01 10:29:55;;;;;;;10.30;2.10;;;;;;;;;;4973226;29;20047;-83
2021/01/01 10:32:21;;;;;;;12.43;1.93;;;;;;;;;;4971791;29;20039;-83
2021/01/01 10:34:47;;;;;;;8.57;1.60;;;;;;;;;;4973543;29;20066;-83
2021/01/01 10:37:35;;;;;;;11.97;1.53;;;;;;;;;;4970225;29;20035;-82
2021/01/01 10:40:01;;;;;;;13.27;2.20;;;;;;;;;;4971527;29;20035;-82
2021/01/01 10:42:27;;;;;;;7.80;1.77;;;;;;;;;;4971906;29;20062;-85
2021/01/01 10:44:54;;;;;;;9.73;1.77;;;;;;;;;;4972751;29;20118;-83
2021/01/01 10:47:20;;;;;;;6.83;1.80;;;;;;;;;;4972873;29;20039;-82
2021/01/01 10:49:46;;;;;;;17.53;3.03;;;;;;;;;;4974786;29;20042;-84
2021/01/01 10:52:12;;;;;;;11.87;2.60;;;;;;;;;;4976207;29;20039;-84
2021/01/01 10:54:39;;;;;;;13.20;2.90;;;;;;;;;;4977270;28;20094;-83
2021/01/01 10:57:05;;;;;;;12.07;2.10;;;;;;;;;;4976652;29;20043;-82
2021/01/01 10:59:31;;;;;;;12.17;2.00;;;;;;;;;;4975604;29;20039;-82
2021/01/01 11:01:59;;;;;;;11.80;3.10;;;;;;;;;;4977448;29;20043;-82
2021/01/01 11:04:25;;;;;;;12.00;2.43;;;;;;;;;;4978583;29;20038;-83
2021/01/01 11:06:51;;;;;;;13.80;3.70;;;;;;;;;;4980719;29;20051;-83
2021/01/01 11:09:21;;;;;;;11.07;2.73;;;;;;;;;;4980039;29;20016;-84
2021/01/01 11:11:47;;;;;;;12.87;2.63;;;;;;;;;;4981205;29;20087;-83
2021/01/01 11:14:20;;;;;;;12.13;2.47;;;;;;;;;;4979957;29;20039;-82
2021/01/01 12:23:27;;;;;;;13.40;2.00;;;;;;;;;;4974168;29;20091;-82
2021/01/01 12:25:54;;;;;;;5.77;1.70;;;;;;;;;;4975413;29;20047;-81
2021/01/01 12:28:20;;;;;;;4.33;1.00;;;;;;;;;;4976558;29;20031;-82
2021/01/01 12:30:47;;;;;;;3.37;1.30;;;;;;;;;;4980144;29;20473;-84
2021/01/01 12:33:13;;;;;;;4.60;1.10;;;;;;;;;;4981614;28;20079;-82
2021/01/01 12:38:43;;;;;;;10.40;1.30;;;;;;;;;;4981603;28;20046;-83
2021/01/01 12:41:12;;;;;;;4.83;1.13;;;;;;;;;;4978413;29;20035;-82
2021/01/01 12:43:48;;;;;;;4.00;0.90;;;;;;;;;;4963951;28;20059;-84
2021/01/01 12:46:17;;;;;;;2.07;0.90;;;;;;;;;;4979591;29;20039;-81
2021/01/01 12:48:43;;;;;;;5.57;1.23;;;;;;;;;;4979048;28;20047;-84
2021/01/01 12:51:09;;;;;;;3.37;0.60;;;;;;;;;;4980825;29;20042;-83
2021/01/01 12:53:35;;;;;;;3.00;0.60;;;;;;;;;;4980555;29;20034;-84
2021/01/01 12:56:02;;;;;;;4.67;0.90;;;;;;;;;;4979814;29;20022;-85
2021/01/01 12:58:28;;;;;;;7.37;1.30;;;;;;;;;;4974219;29;20047;-82
2021/01/01 13:04:06;;;;;;;9.63;0.80;;;;;;;;;;4972631;29;20106;-82
2021/01/01 13:06:32;;;;;;;1.50;1.00;;;;;;;;;;4977793;29;20015;-82
2021/01/01 13:09:01;;;;;;;3.43;0.80;;;;;;;;;;4979577;28;20119;-83
2021/01/01 13:11:27;;;;;;;3.07;0.70;;;;;;;;;;4975017;29;20047;-81
2021/01/01 13:14:08;;;;;;;1.43;0.40;;;;;;;;;;4972633;28;20133;-82
2021/01/01 13:16:34;;;;;;;3.43;0.70;;;;;;;;;;4956819;29;20047;-81
2021/01/01 13:19:01;;;;;;;4.37;0.53;;;;;;;;;;4968904;28;20043;-82
2021/01/01 13:21:29;;;;;;;2.03;0.40;;;;;;;;;;4969282;29;20042;-82
2021/01/01 13:23:58;;;;;;;1.80;0.60;;;;;;;;;;4971814;29;20039;-81
2021/01/01 13:26:24;;;;;;;2.13;0.40;;;;;;;;;;4973271;29;20035;-82
2021/01/01 13:28:51;;;;;;;5.43;0.60;;;;;;;;;;4974407;29;20047;-81
2021/01/01 13:31:17;;;;;;;4.30;0.43;;;;;;;;;;4975878;29;20046;-82
2021/01/01 13:33:53;;;;;;;4.53;0.50;;;;;;;;;;4979448;29;20046;-84
2021/01/01 13:36:47;;;;;;;3.73;0.40;;;;;;;;;;4978401;29;20046;-83
2021/01/01 13:39:13;;;;;;;3.37;0.60;;;;;;;;;;4979951;28;20019;-82
2021/01/01 13:41:39;;;;;;;1.87;0.50;;;;;;;;;;4976102;29;20039;-82
2021/01/01 13:47:10;;;;;;;3.13;0.50;;;;;;;;;;4978277;28;20075;-83
2021/01/01 15:45:07;;;;;;;3.60;0.90;;;;;;;;;;4939143;29;20033;-85
2021/01/01 16:18:58;;;;;;;4.47;1.83;;;;;;;;;;5891082;23;20091;-85
2021/01/01 16:21:25;;;;;;;4.33;1.97;;;;;;;;;;4944400;29;20028;-84
2021/01/01 16:23:51;;;;;;;2.20;1.40;;;;;;;;;;4943762;29;20071;-85
2021/01/01 16:31:32;;;;;;;4.57;2.00;;;;;;;;;;5752155;23;20054;-85
2021/01/01 16:52:06;;;;;;;5.90;3.73;;;;;;;;;;4941082;29;20048;-85
2021/01/01 16:54:35;;;;;;;8.20;3.63;;;;;;;;;;4958360;29;20201;-85
2021/01/01 16:57:02;;;;;;;6.90;3.13;;;;;;;;;;4943029;29;20036;-84
2021/01/01 16:59:30;;;;;;;8.10;4.60;;;;;;;;;;4957531;29;20064;-84
2021/01/01 17:01:56;;;;;;;5.97;3.63;;;;;;;;;;4953442;29;20052;-85
2021/01/01 17:04:27;;;;;;;11.53;5.60;;;;;;;;;;4958573;29;20039;-84
2021/01/01 17:06:53;;;;;;;4.57;3.50;;;;;;;;;;4952813;29;20035;-85
2021/01/01 17:09:20;;;;;;;7.23;3.80;;;;;;;;;;4958279;29;20040;-84
2021/01/01 17:11:47;;;;;;;6.93;4.30;;;;;;;;;;4951607;29;20020;-84
2021/01/01 17:14:13;;;;;;;7.67;4.00;;;;;;;;;;4957789;29;20023;-85
2021/01/01 17:16:40;;;;;;;8.73;4.07;;;;;;;;;;4942970;29;20043;-84
2021/01/01 17:19:08;;;;;;;8.83;3.17;;;;;;;;;;4953608;29;20088;-84
2021/01/01 17:21:34;;;;;;;7.23;4.30;;;;;;;;;;4957313;29;20494;-83
2021/01/01 17:24:03;;;;;;;7.03;3.57;;;;;;;;;;4941837;29;20052;-83
2021/01/01 17:26:30;;;;;;;9.67;4.37;;;;;;;;;;4956986;29;20036;-83
2021/01/01 17:28:57;;;;;;;6.83;3.97;;;;;;;;;;4952301;29;20028;-83
2021/01/01 17:31:24;;;;;;;7.60;5.33;;;;;;;;;;4957268;29;20131;-84
2021/01/01 17:33:51;;;;;;;17.20;9.00;;;;;;;;;;4942092;29;20067;-84
2021/01/01 17:36:18;;;;;;;10.43;6.57;;;;;;;;;;4955041;29;20055;-83
2021/01/01 17:38:44;;;;;;;11.70;7.03;;;;;;;;;;4950283;29;20047;-84
2021/01/01 17:41:14;;;;;;;16.43;6.77;;;;;;;;;;4955515;29;20047;-83
2021/01/01 17:43:41;;;;;;;12.70;8.10;;;;;;;;;;4947396;29;20068;-83
2021/01/01 17:46:07;;;;;;;11.67;7.30;;;;;;;;;;4956024;29;20099;-83
2021/01/01 17:48:36;;;;;;;11.47;7.57;;;;;;;;;;4957103;29;20043;-84
2021/01/01 17:51:03;;;;;;;39.17;18.67;;;;;;;;;;4957408;29;20079;-84
2021/01/01 17:53:30;;;;;;;20.40;10.93;;;;;;;;;;4942455;29;20044;-84
2021/01/01 17:55:59;;;;;;;14.97;8.33;;;;;;;;;;4953170;29;20032;-84
2021/01/01 17:58:30;;;;;;;16.03;10.23;;;;;;;;;;4957885;29;20020;-82
2021/01/01 18:00:57;;;;;;;14.73;8.50;;;;;;;;;;4952981;29;20063;-84
2021/01/01 18:03:23;;;;;;;13.47;7.63;;;;;;;;;;4955519;29;20042;-84
2021/01/01 18:05:50;;;;;;;14.93;7.73;;;;;;;;;;4942047;29;20020;-84
2021/01/01 18:08:22;;;;;;;12.93;8.43;;;;;;;;;;4955537;29;20038;-83
2021/01/01 18:10:48;;;;;;;13.60;8.30;;;;;;;;;;4950116;29;20048;-84
2021/01/01 18:13:14;;;;;;;11.50;7.10;;;;;;;;;;4957520;29;20016;-85
2021/01/01 18:15:50;;;;;;;10.40;6.93;;;;;;;;;;4950768;29;20048;-84
2021/01/01 18:20:52;;;;;;;11.43;6.63;;;;;;;;;;5263466;23;20055;-83
2021/01/01 18:23:38;;;;;;;12.57;6.80;;;;;;;;;;4959667;29;20043;-83
2021/01/01 18:26:05;;;;;;;13.80;7.60;;;;;;;;;;4959809;29;20036;-83
2021/01/01 18:28:34;;;;;;;15.30;6.77;;;;;;;;;;4959489;29;20035;-83
2021/01/01 18:31:00;;;;;;;11.13;7.20;;;;;;;;;;5489504;23;20127;-83
2021/01/01 18:33:26;;;;;;;10.37;6.83;;;;;;;;;;4976645;29;20070;-83